Bushey, United Kingdom
Current Conditions -  °F | °C
As of 11:50 PM on Monday 22 Dec 2014 (Local Time) from EGWU Reporting Station
Broken Clouds Broken Clouds  
Wind Chill: 54°   Ceiling: 2200
Heat Index: 54°   Visibility: 6mi
Dew Point: 45°   Wind: 15mph
Humidity: 72%   Direction: 250°WSW
Pressure: 30.06"   Gusts: NA
Location:  51.64°N, 0.36°W
Report Text: EGWU 222350Z AUTO 25013KT 9999 // BKN022/// BKN032/// 12/07 Q1018
Loading
Personal Weather Stations






























Interactive Weather Map New forecast layout! Learn more

10-Day Weather Forecast

Advertisements
Track Severe Weather on mobile